Station Historical Data
Daily Summary for March 23, 2017 Units:  Metric    English   Both
« Previous Day
Next Day »
Daily Weekly Monthly Yearly Custom
  High: Low: Average:
Temperature: 4.9 °C -9.4 °C -1.8 °C
Dew Point: -7.1 °C -15.2 °C -10.3 °C
Humidity: 85% 23% 57%
Wind Speed: 16.1km/h 0km/h 2.6km/h
Wind Gust: 17.7km/h - -
Wind- - South
Pressure: 1038.1 hPa 1027 hPa -
Precipitation: 0 mm    
Historical Graphs
 
 
Tabular Data for March 23, 2017
Time Temperature Dew Point Pressure Wind Wind Speed Wind Gust Humidity Rainfall Rate (Hourly)
00:04 -7.3 °C -11.7 °C 1035.1 hPa Calm     71% 0 mm
00:09 -7.2 °C -11.7 °C 1035.1 hPa Calm     70% 0 mm
00:14 -7.2 °C -11.7 °C 1035.1 hPa Calm     70% 0 mm
00:19 -7.3 °C -12.1 °C 1035.1 hPa Calm     69% 0 mm
00:24 -7.3 °C -11.7 °C 1035.1 hPa Calm     71% 0 mm
00:29 -7.1 °C -11.7 °C 1035.1 hPa Calm     70% 0 mm
00:34 -7.2 °C -11.6 °C 1035.1 hPa Calm     71% 0 mm
00:39 -7.1 °C -11.3 °C 1035.1 hPa Calm     72% 0 mm
00:44 -6.6 °C -10.9 °C 1035.1 hPa Calm     71% 0 mm
00:49 -6.4 °C -11.2 °C 1035.1 hPa Calm     69% 0 mm
00:54 -6.3 °C -11.2 °C 1035.1 hPa Calm     68% 0 mm
00:59 -6.3 °C -11.2 °C 1035.1 hPa Calm     68% 0 mm
01:04 -6.3 °C -11.1 °C 1035.1 hPa Calm     69% 0 mm
01:09 -6.4 °C -11.3 °C 1035.4 hPa Calm     68% 0 mm
01:14 -6.4 °C -11.2 °C 1035.4 hPa Calm     69% 0 mm
01:19 -6.5 °C -11.3 °C 1035.4 hPa Calm     69% 0 mm
01:24 -6.4 °C -11 °C 1035.4 hPa Calm     70% 0 mm
01:29 -6.3 °C -10.9 °C 1035.4 hPa Calm     70% 0 mm
01:34 -6.3 °C -10.9 °C 1035.4 hPa Calm     70% 0 mm
01:39 -6.4 °C -10.9 °C 1035.1 hPa Calm     70% 0 mm
01:44 -6.6 °C -11.1 °C 1035.4 hPa Calm     70% 0 mm
01:49 -6.7 °C -11.1 °C 1035.4 hPa Calm     71% 0 mm
01:54 -6.9 °C -11.1 °C 1035.4 hPa Calm     72% 0 mm
01:59 -7.1 °C -11.3 °C 1035.4 hPa Calm     72% 0 mm
02:04 -7 °C -11 °C 1035.4 hPa Calm     73% 0 mm
02:09 -6.8 °C -10.9 °C 1035.4 hPa Calm     73% 0 mm
02:14 -6.8 °C -10.9 °C 1035.4 hPa Calm     73% 0 mm
02:19 -6.8 °C -10.7 °C 1035.4 hPa Calm     74% 0 mm
02:24 -6.8 °C -10.7 °C 1035.4 hPa Calm     74% 0 mm
02:29 -7.1 °C -10.9 °C 1035.4 hPa Calm     74% 0 mm
02:34 -7.2 °C -11 °C 1035.4 hPa Calm     74% 0 mm
02:39 -7.3 °C -11 °C 1035.4 hPa Calm     75% 0 mm
02:44 -7.4 °C -10.9 °C 1035.4 hPa Calm     76% 0 mm
02:49 -7.3 °C -10.7 °C 1035.4 hPa Calm     77% 0 mm
02:54 -7.3 °C -10.7 °C 1035.4 hPa Calm     77% 0 mm
02:59 -7.4 °C -10.8 °C 1035.4 hPa Calm     77% 0 mm
03:04 -7.5 °C -10.7 °C 1035.8 hPa Calm     78% 0 mm
03:09 -7.6 °C -10.7 °C 1035.4 hPa Calm     78% 0 mm
03:14 -7.7 °C -10.7 °C 1035.8 hPa Calm     79% 0 mm
03:19 -7.7 °C -10.5 °C 1035.8 hPa Calm     80% 0 mm
03:24 -7.7 °C -10.7 °C 1035.4 hPa Calm     79% 0 mm
03:29 -7.8 °C -10.8 °C 1035.4 hPa Calm     79% 0 mm
03:34 -8 °C -10.8 °C 1035.4 hPa Calm     80% 0 mm
03:39 -8.1 °C -10.7 °C 1035.4 hPa Calm     81% 0 mm
03:44 -8.1 °C -10.9 °C 1035.8 hPa Calm     80% 0 mm
03:49 -8.2 °C -11.1 °C 1035.8 hPa Calm     80% 0 mm
03:54 -8.3 °C -11.2 °C 1035.8 hPa Calm     80% 0 mm
03:59 -8.4 °C -11.2 °C 1035.8 hPa Calm     80% 0 mm
04:04 -8.4 °C -11.1 °C 1035.8 hPa Calm     81% 0 mm
04:09 -8.6 °C -11.2 °C 1035.4 hPa Calm     81% 0 mm
04:14 -8.7 °C -11.3 °C 1035.8 hPa Calm     81% 0 mm
04:19 -8.8 °C -11.3 °C 1035.8 hPa Calm     82% 0 mm
04:24 -8.8 °C -11.3 °C 1035.8 hPa Calm     82% 0 mm
04:29 -8.8 °C -11.3 °C 1035.8 hPa Calm     82% 0 mm
04:34 -8.9 °C -11.4 °C 1035.8 hPa Calm     82% 0 mm
04:39 -8.9 °C -11.3 °C 1035.8 hPa Calm     83% 0 mm
04:44 -8.9 °C -11.3 °C 1035.8 hPa Calm     83% 0 mm
04:49 -9 °C -11.3 °C 1035.8 hPa Calm     83% 0 mm
04:54 -9 °C -11.2 °C 1035.8 hPa Calm     84% 0 mm
04:59 -9.1 °C -11.3 °C 1035.8 hPa Calm     84% 0 mm
05:04 -9.1 °C -11.3 °C 1036.1 hPa Calm     84% 0 mm
05:09 -9.1 °C -11.3 °C 1036.1 hPa Calm     84% 0 mm
05:14 -9.1 °C -11.3 °C 1036.1 hPa Calm     84% 0 mm
05:19 -9.2 °C -11.4 °C 1036.1 hPa Calm     84% 0 mm
05:24 -9.3 °C -11.5 °C 1036.5 hPa Calm     84% 0 mm
05:29 -9.2 °C -11.4 °C 1036.5 hPa Calm     84% 0 mm
05:34 -9.1 °C -11.3 °C 1036.5 hPa Calm     84% 0 mm
05:39 -9.2 °C -11.4 °C 1036.5 hPa Calm     84% 0 mm
05:44 -9.1 °C -11.3 °C 1036.5 hPa Calm     84% 0 mm
05:49 -9.1 °C -11.3 °C 1036.5 hPa Calm     84% 0 mm
05:54 -9.1 °C -11.3 °C 1036.5 hPa Calm     84% 0 mm
05:59 -9.1 °C -11.4 °C 1036.5 hPa Calm     83% 0 mm
06:04 -9.1 °C -11.4 °C 1036.5 hPa Calm     83% 0 mm
06:09 -9.1 °C -11.3 °C 1036.5 hPa Calm     84% 0 mm
06:14 -9.1 °C -11.3 °C 1036.5 hPa Calm     84% 0 mm
06:19 -9.2 °C -11.4 °C 1036.5 hPa Calm     84% 0 mm
06:24 -9.3 °C -11.7 °C 1036.5 hPa Calm     83% 0 mm
06:29 -9.3 °C -11.5 °C 1036.8 hPa Calm     84% 0 mm
06:34 -9.2 °C -11.4 °C 1036.8 hPa Calm     84% 0 mm
06:39 -9.4 °C -11.6 °C 1036.8 hPa Calm     84% 0 mm
06:44 -9.3 °C -11.6 °C 1036.8 hPa Calm     84% 0 mm
06:49 -9.4 °C -11.6 °C 1036.8 hPa Calm     84% 0 mm
06:54 -9.3 °C -11.3 °C 1036.8 hPa Calm     85% 0 mm
06:59 -9.2 °C -11.2 °C 1036.8 hPa Calm     85% 0 mm
07:04 -9.1 °C -11.1 °C 1036.8 hPa Calm     85% 0 mm
07:09 -8.7 °C -10.8 °C 1036.8 hPa Calm     85% 0 mm
07:14 -8.5 °C -10.6 °C 1036.8 hPa Calm     85% 0 mm
07:19 -8.6 °C -10.8 °C 1036.8 hPa Calm     84% 0 mm
07:24 -8.5 °C -10.7 °C 1037.1 hPa Calm     84% 0 mm
07:29 -8.4 °C -10.7 °C 1037.1 hPa Calm     84% 0 mm
07:34 -8.7 °C -10.9 °C 1037.1 hPa Calm     84% 0 mm
07:39 -8.4 °C -10.5 °C 1037.1 hPa Calm     85% 0 mm
07:44 -8.2 °C -10.4 °C 1037.1 hPa Calm     84% 0 mm
07:49 -7.9 °C -10.2 °C 1037.5 hPa Calm     84% 0 mm
07:54 -7.8 °C -10 °C 1037.5 hPa Calm     84% 0 mm
07:59 -7.6 °C -10 °C 1037.5 hPa Calm   3.2 km/h 83% 0 mm
08:04 -7.5 °C -9.9 °C 1037.5 hPa Calm   4.8 km/h 83% 0 mm
08:09 -7.4 °C -9.8 °C 1037.5 hPa East 1.6 km/h 4.8 km/h 83% 0 mm
08:14 -7.3 °C -9.9 °C 1037.5 hPa East 1.6 km/h 4.8 km/h 82% 0 mm
08:19 -7.3 °C -9.8 °C 1037.5 hPa Calm   4.8 km/h 82% 0 mm
08:24 -7.1 °C -9.6 °C 1037.5 hPa Calm   4.8 km/h 82% 0 mm
08:29 -6.8 °C -9.6 °C 1037.5 hPa ESE 3.2 km/h 3.2 km/h 81% 0 mm
08:34 -6.6 °C -9.5 °C 1037.5 hPa Calm   3.2 km/h 80% 0 mm
08:39 -6.2 °C -9.3 °C 1037.5 hPa Calm   3.2 km/h 79% 0 mm
08:44 -5.8 °C -8.9 °C 1037.8 hPa Calm     79% 0 mm
08:49 -5.5 °C -8.9 °C 1037.8 hPa Calm   4.8 km/h 77% 0 mm
08:54 -5.3 °C -8.7 °C 1037.8 hPa SSW 1.6 km/h 4.8 km/h 77% 0 mm
08:59 -5.1 °C -8.6 °C 1037.8 hPa SSW 3.2 km/h 6.4 km/h 76% 0 mm
09:04 -4.9 °C -8.7 °C 1037.8 hPa SSW 3.2 km/h 6.4 km/h 75% 0 mm
09:09 -4.6 °C -8.4 °C 1037.8 hPa SSW 3.2 km/h 6.4 km/h 75% 0 mm
09:14 -4.4 °C -8.5 °C 1037.8 hPa WSW 3.2 km/h 6.4 km/h 73% 0 mm
09:19 -4.3 °C -8.6 °C 1037.8 hPa Calm   6.4 km/h 72% 0 mm
09:24 -4.2 °C -8.4 °C 1037.8 hPa South 1.6 km/h 4.8 km/h 72% 0 mm
09:29 -4.1 °C -8.8 °C 1038.1 hPa WSW 3.2 km/h 4.8 km/h 70% 0 mm
09:34 -3.9 °C -8.6 °C 1037.8 hPa Calm   6.4 km/h 70% 0 mm
09:39 -3.8 °C -8.5 °C 1037.8 hPa NE 1.6 km/h 4.8 km/h 70% 0 mm
09:44 -3.6 °C -8.7 °C 1037.8 hPa NE 1.6 km/h 4.8 km/h 68% 0 mm
09:49 -3 °C -8.1 °C 1037.8 hPa NE 1.6 km/h 3.2 km/h 68% 0 mm
09:54 -2.8 °C -7.9 °C 1037.8 hPa Calm   3.2 km/h 68% 0 mm
09:59 -2.8 °C -8.1 °C 1037.8 hPa WSW 1.6 km/h 8 km/h 67% 0 mm
10:04 -3.4 °C -8.5 °C 1037.8 hPa NW 1.6 km/h 8 km/h 68% 0 mm
10:09 -2.9 °C -8.2 °C 1038.1 hPa WNW 3.2 km/h 6.4 km/h 67% 0 mm
10:14 -2.9 °C -8.4 °C 1037.8 hPa NW 3.2 km/h 6.4 km/h 66% 0 mm
10:19 -2.9 °C -8 °C 1037.8 hPa NNW 3.2 km/h 6.4 km/h 68% 0 mm
10:24 -2.3 °C -7.4 °C 1037.8 hPa NNE 1.6 km/h 4.8 km/h 68% 0 mm
10:29 -2.1 °C -8.4 °C 1037.8 hPa Calm   6.4 km/h 62% 0 mm
10:34 -2.2 °C -8.3 °C 1037.8 hPa SW 3.2 km/h 6.4 km/h 63% 0 mm
10:39 -2.1 °C -8.4 °C 1037.8 hPa Calm   6.4 km/h 62% 0 mm
10:44 -1.8 °C -8.1 °C 1037.8 hPa SW 3.2 km/h 6.4 km/h 62% 0 mm
10:49 -1.9 °C -9.1 °C 1037.8 hPa South 3.2 km/h 8 km/h 58% 0 mm
10:54 -1.8 °C -8.3 °C 1037.8 hPa SSW 3.2 km/h 8 km/h 61% 0 mm
10:59 -1.4 °C -8.9 °C 1037.8 hPa South 3.2 km/h 6.4 km/h 57% 0 mm
11:04 -1.7 °C -9.6 °C 1037.8 hPa SE 3.2 km/h 8 km/h 55% 0 mm
11:09 -1.6 °C -8.8 °C 1037.8 hPa SSE 1.6 km/h 6.4 km/h 58% 0 mm
11:14 -1.4 °C -8.7 °C 1037.8 hPa ESE 1.6 km/h 4.8 km/h 58% 0 mm
11:19 -1.4 °C -8.7 °C 1037.8 hPa South 1.6 km/h 6.4 km/h 58% 0 mm
11:24 -1 °C -8.4 °C 1037.5 hPa South 3.2 km/h 8 km/h 57% 0 mm
11:29 -1.2 °C -8.7 °C 1037.5 hPa South 4.8 km/h 8 km/h 57% 0 mm
11:34 -1.1 °C -8.5 °C 1037.5 hPa WSW 4.8 km/h 6.4 km/h 57% 0 mm
11:39 -0.3 °C -7.6 °C 1037.5 hPa WSW 4.8 km/h 6.4 km/h 58% 0 mm
11:44 -0.1 °C -8.8 °C 1037.1 hPa WSW 1.6 km/h 6.4 km/h 52% 0 mm
11:49 0.1 °C -7.4 °C 1037.1 hPa WSW 3.2 km/h 9.7 km/h 57% 0 mm
11:54 -0.1 °C -8.6 °C 1037.1 hPa NW 4.8 km/h 11.3 km/h 53% 0 mm
11:59 0.1 °C -8.1 °C 1037.1 hPa WSW 6.4 km/h 9.7 km/h 54% 0 mm
12:04 0.1 °C -8.7 °C 1037.1 hPa SSW 1.6 km/h 11.3 km/h 52% 0 mm
12:09 -0.3 °C -8.5 °C 1037.1 hPa Calm   3.2 km/h 54% 0 mm
12:14 0.6 °C -7.7 °C 1037.1 hPa SW 11.3 km/h 11.3 km/h 54% 0 mm
12:19 0.4 °C -9.1 °C 1036.8 hPa SW 4.8 km/h 11.3 km/h 49% 0 mm
12:24 0.9 °C -7.9 °C 1036.8 hPa SW 4.8 km/h 11.3 km/h 52% 0 mm
12:29 0.9 °C -9.1 °C 1036.8 hPa SW 4.8 km/h 12.9 km/h 47% 0 mm
12:34 0.7 °C -9.9 °C 1036.8 hPa SSW 4.8 km/h 12.9 km/h 45% 0 mm
12:39 1.1 °C -7.9 °C 1036.8 hPa WNW 3.2 km/h 9.7 km/h 51% 0 mm
12:44 0.8 °C -8.7 °C 1036.8 hPa NW 3.2 km/h 8 km/h 49% 0 mm
12:49 0.9 °C -9.1 °C 1036.8 hPa West 4.8 km/h 6.4 km/h 47% 0 mm
12:54 1.1 °C -8.7 °C 1036.5 hPa SE 4.8 km/h 11.3 km/h 48% 0 mm
12:59 1.4 °C -8.4 °C 1036.5 hPa South 1.6 km/h 6.4 km/h 48% 0 mm
13:04 1.6 °C -8 °C 1036.5 hPa NNW 3.2 km/h 11.3 km/h 49% 0 mm
13:09 1.6 °C -8.6 °C 1036.5 hPa Calm   9.7 km/h 47% 0 mm
13:14 1.3 °C -9.4 °C 1036.5 hPa North 1.6 km/h 6.4 km/h 45% 0 mm
13:19 1.6 °C -9.1 °C 1036.5 hPa West 3.2 km/h 8 km/h 45% 0 mm
13:24 1.7 °C -8.7 °C 1036.1 hPa WSW 3.2 km/h 11.3 km/h 46% 0 mm
13:29 2.1 °C -8.3 °C 1036.1 hPa West 4.8 km/h 11.3 km/h 46% 0 mm
13:34 2.6 °C -8.2 °C 1036.1 hPa WNW 4.8 km/h 11.3 km/h 45% 0 mm
13:39 2.4 °C -8.9 °C 1036.1 hPa SSW 8 km/h 12.9 km/h 43% 0 mm
13:44 2.3 °C -9 °C 1036.1 hPa SSW 8 km/h 14.5 km/h 43% 0 mm
13:49 1.9 °C -9.7 °C 1035.8 hPa WSW 3.2 km/h 12.9 km/h 42% 0 mm
13:54 2.2 °C -11.3 °C 1035.8 hPa SW 4.8 km/h 12.9 km/h 36% 0 mm
13:59 2.2 °C -11.7 °C 1035.8 hPa WSW 4.8 km/h 14.5 km/h 35% 0 mm
14:04 2.7 °C -10.2 °C 1035.4 hPa WNW 8 km/h 11.3 km/h 38% 0 mm
14:09 2.7 °C -11.7 °C 1035.4 hPa WSW 8 km/h 14.5 km/h 34% 0 mm
14:14 2.6 °C -11.3 °C 1035.4 hPa WSW 9.7 km/h 11.3 km/h 35% 0 mm
14:19 2.8 °C -10.8 °C 1035.4 hPa West 6.4 km/h 14.5 km/h 36% 0 mm
14:24 2.7 °C -12.1 °C 1035.1 hPa WSW 8 km/h 14.5 km/h 33% 0 mm
14:29 2.8 °C -10.8 °C 1035.1 hPa WSW 6.4 km/h 12.9 km/h 36% 0 mm
14:34 2.6 °C -11.3 °C 1035.1 hPa WNW 9.7 km/h 16.1 km/h 35% 0 mm
14:39 2.9 °C -12.2 °C 1034.8 hPa WSW 8 km/h 12.9 km/h 32% 0 mm
14:44 2.9 °C -10.7 °C 1034.8 hPa SW 8 km/h 9.7 km/h 36% 0 mm
14:49 2.9 °C -12.6 °C 1034.8 hPa SSW 3.2 km/h 9.7 km/h 31% 0 mm
14:54 2.7 °C -12.1 °C 1034.4 hPa SW 4.8 km/h 9.7 km/h 33% 0 mm
14:59 2.9 °C -10.1 °C 1034.4 hPa SW 6.4 km/h 17.7 km/h 38% 0 mm
15:04 3.3 °C -9.7 °C 1034.1 hPa SW 6.4 km/h 17.7 km/h 38% 0 mm
15:09 3.3 °C -10.7 °C 1034.1 hPa SW 6.4 km/h 11.3 km/h 35% 0 mm
15:14 3.2 °C -10.8 °C 1034.1 hPa SSW 1.6 km/h 9.7 km/h 35% 0 mm
15:19 3.5 °C -10.9 °C 1033.7 hPa SSW 6.4 km/h 8 km/h 34% 0 mm
15:24 3.3 °C -10.1 °C 1033.7 hPa NE 4.8 km/h 9.7 km/h 37% 0 mm
15:29 3.6 °C -8.8 °C 1033.7 hPa SSE 4.8 km/h 11.3 km/h 40% 0 mm
15:34 3.9 °C -9.5 °C 1033.7 hPa SSW 4.8 km/h 11.3 km/h 37% 0 mm
15:39 4.1 °C -10.1 °C 1033.4 hPa SW 4.8 km/h 11.3 km/h 35% 0 mm
15:44 4.2 °C -9.9 °C 1033.4 hPa SW 8 km/h 8 km/h 35% 0 mm
15:49 4.3 °C -9.8 °C 1033.4 hPa SSW 1.6 km/h 11.3 km/h 35% 0 mm
15:54 4.4 °C -11.7 °C 1033.4 hPa SE 1.6 km/h 6.4 km/h 30% 0 mm
15:59 4.7 °C -11.1 °C 1033.4 hPa South 3.2 km/h 9.7 km/h 31% 0 mm
16:04 4.2 °C -12.7 °C 1033.4 hPa SW 3.2 km/h 9.7 km/h 28% 0 mm
16:09 4.4 °C -11.7 °C 1033.4 hPa WSW 3.2 km/h 12.9 km/h 30% 0 mm
16:14 4.4 °C -12.5 °C 1033.1 hPa South 4.8 km/h 9.7 km/h 28% 0 mm
16:19 4.4 °C -12.5 °C 1033.1 hPa WSW 3.2 km/h 9.7 km/h 28% 0 mm
16:24 4.4 °C -12.9 °C 1032.7 hPa SSW 3.2 km/h 9.7 km/h 27% 0 mm
16:34 4.9 °C -12.1 °C 1032.4 hPa West 3.2 km/h 6.4 km/h 28% 0 mm
16:39 4.8 °C -12.6 °C 1032.4 hPa WSW 1.6 km/h 8 km/h 27% 0 mm
16:44 4.7 °C -12.3 °C 1032.4 hPa SSW 8 km/h 8 km/h 28% 0 mm
16:49 4.4 °C -13.9 °C 1032.4 hPa South 1.6 km/h 8 km/h 25% 0 mm
16:54 4.2 °C -15.2 °C 1032.4 hPa SW 1.6 km/h 6.4 km/h 23% 0 mm
16:59 4.2 °C -12.8 °C 1032.1 hPa SW 1.6 km/h 6.4 km/h 28% 0 mm
17:04 4.6 °C -12.4 °C 1032.1 hPa SW 3.2 km/h 6.4 km/h 28% 0 mm
17:09 4.8 °C -14.1 °C 1032.1 hPa SSW 3.2 km/h 6.4 km/h 24% 0 mm
17:14 4.7 °C -12.7 °C 1032.1 hPa NE 1.6 km/h 6.4 km/h 27% 0 mm
17:19 4.9 °C -13.1 °C 1032.1 hPa SSW 3.2 km/h 4.8 km/h 26% 0 mm
17:24 4.9 °C -14 °C 1032.1 hPa SW 1.6 km/h 9.7 km/h 24% 0 mm
17:29 4.9 °C -13.1 °C 1031.7 hPa WNW 4.8 km/h 8 km/h 26% 0 mm
17:34 4.8 °C -13.2 °C 1031.7 hPa WNW 4.8 km/h 8 km/h 26% 0 mm
17:39 4.7 °C -13.2 °C 1031.7 hPa WNW 4.8 km/h 8 km/h 26% 0 mm
17:44 4.6 °C -14.3 °C 1031.7 hPa Calm   3.2 km/h 24% 0 mm
17:49 4.4 °C -13.9 °C 1031.4 hPa Calm   6.4 km/h 25% 0 mm
17:54 4.5 °C -12.9 °C 1031.4 hPa NNW 3.2 km/h 6.4 km/h 27% 0 mm
17:59 4.4 °C -13 °C 1031.4 hPa NNW 3.2 km/h 6.4 km/h 27% 0 mm
18:04 4.3 °C -14.1 °C 1031.4 hPa NW 1.6 km/h 6.4 km/h 25% 0 mm
18:09 4.1 °C -13.7 °C 1031 hPa North 1.6 km/h 4.8 km/h 26% 0 mm
18:14 3.9 °C -13.4 °C 1031 hPa East 1.6 km/h 3.2 km/h 27% 0 mm
18:19 3.8 °C -12.7 °C 1031 hPa NE 1.6 km/h 4.8 km/h 29% 0 mm
18:24 3.7 °C -13.7 °C 1030.7 hPa SSW 1.6 km/h 3.2 km/h 27% 0 mm
18:29 3.7 °C -13.2 °C 1031 hPa West 1.6 km/h 4.8 km/h 28% 0 mm
18:34 3.8 °C -12.7 °C 1031 hPa NW 1.6 km/h 4.8 km/h 29% 0 mm
18:39 3.7 °C -13.2 °C 1031 hPa NNW 3.2 km/h 4.8 km/h 28% 0 mm
18:44 3.7 °C -12.8 °C 1031 hPa NNW 1.6 km/h 4.8 km/h 29% 0 mm
18:49 3.7 °C -11.9 °C 1031 hPa North 1.6 km/h 6.4 km/h 31% 0 mm
18:54 3.6 °C -12.8 °C 1031 hPa Calm   3.2 km/h 29% 0 mm
18:59 3.4 °C -12.1 °C 1031.4 hPa North 3.2 km/h 3.2 km/h 31% 0 mm
19:04 3.4 °C -12.2 °C 1031.4 hPa NNW 3.2 km/h 8 km/h 31% 0 mm
19:09 3.4 °C -11.7 °C 1031.4 hPa Calm   6.4 km/h 32% 0 mm
19:14 3.4 °C -12.1 °C 1031 hPa North 3.2 km/h 6.4 km/h 31% 0 mm
19:19 3.4 °C -12.1 °C 1031 hPa NE 3.2 km/h 6.4 km/h 31% 0 mm
19:24 3.4 °C -12.1 °C 1031 hPa ENE 3.2 km/h 6.4 km/h 31% 0 mm
19:29 3.4 °C -11.3 °C 1030.7 hPa NE 3.2 km/h 6.4 km/h 33% 0 mm
19:34 3.4 °C -11 °C 1030.4 hPa NE 4.8 km/h 6.4 km/h 34% 0 mm
19:39 3.4 °C -10.9 °C 1030.7 hPa NE 4.8 km/h 8 km/h 34% 0 mm
19:44 3.4 °C -10.9 °C 1030.4 hPa NE 3.2 km/h 8 km/h 34% 0 mm
19:49 3.4 °C -10.9 °C 1030.4 hPa NE 3.2 km/h 6.4 km/h 34% 0 mm
19:54 3.4 °C -10.9 °C 1030.7 hPa NE 1.6 km/h 8 km/h 34% 0 mm
19:59 3.4 °C -10.6 °C 1030.7 hPa NE 6.4 km/h 6.4 km/h 35% 0 mm
20:04 3.5 °C -10.9 °C 1030.7 hPa ENE 4.8 km/h 11.3 km/h 34% 0 mm
20:09 3.4 °C -10.6 °C 1030.7 hPa NE 6.4 km/h 9.7 km/h 35% 0 mm
20:14 3.3 °C -11.1 °C 1030.7 hPa NE 4.8 km/h 12.9 km/h 34% 0 mm
20:19 3.3 °C -11.1 °C 1030.7 hPa NE 6.4 km/h 12.9 km/h 34% 0 mm
20:24 3.2 °C -11.2 °C 1030.7 hPa NE 6.4 km/h 12.9 km/h 34% 0 mm
20:29 3.1 °C -10.9 °C 1030.7 hPa NE 6.4 km/h 12.9 km/h 35% 0 mm
20:34 2.8 °C -11.2 °C 1030.4 hPa NE 4.8 km/h 11.3 km/h 35% 0 mm
20:39 2.7 °C -10.9 °C 1030.4 hPa East 3.2 km/h 11.3 km/h 36% 0 mm
20:44 2.5 °C -10.4 °C 1030.4 hPa NE 4.8 km/h 11.3 km/h 38% 0 mm
20:49 2.4 °C -10.5 °C 1030.4 hPa NE 4.8 km/h 11.3 km/h 38% 0 mm
20:54 2.4 °C -10.2 °C 1030.4 hPa ENE 8 km/h 12.9 km/h 39% 0 mm
20:59 2.3 °C -9.6 °C 1030.4 hPa NE 8 km/h 11.3 km/h 41% 0 mm
21:04 2.3 °C -9 °C 1030.4 hPa ENE 4.8 km/h 12.9 km/h 43% 0 mm
21:09 2.3 °C -8.7 °C 1030.4 hPa NE 4.8 km/h 8 km/h 44% 0 mm
21:14 2.3 °C -8.4 °C 1030.4 hPa ESE 6.4 km/h 12.9 km/h 45% 0 mm
21:19 2.3 °C -8.4 °C 1030.4 hPa ENE 4.8 km/h 12.9 km/h 45% 0 mm
21:24 2.2 °C -8.3 °C 1030 hPa ENE 3.2 km/h 9.7 km/h 46% 0 mm
21:29 2.1 °C -8.3 °C 1030 hPa ENE 4.8 km/h 11.3 km/h 46% 0 mm
21:34 2.1 °C -8.1 °C 1030 hPa ENE 6.4 km/h 12.9 km/h 47% 0 mm
21:39 2.1 °C -8.1 °C 1029.7 hPa NE 8 km/h 14.5 km/h 47% 0 mm
21:44 2 °C -7.9 °C 1029.7 hPa NE 8 km/h 11.3 km/h 48% 0 mm
21:49 1.9 °C -7.9 °C 1029.7 hPa ENE 4.8 km/h 11.3 km/h 48% 0 mm
21:54 1.9 °C -7.9 °C 1029.3 hPa ENE 4.8 km/h 14.5 km/h 48% 0 mm
21:59 1.9 °C -7.7 °C 1029.3 hPa ENE 4.8 km/h 14.5 km/h 49% 0 mm
22:04 1.9 °C -7.7 °C 1029.3 hPa ESE 3.2 km/h 14.5 km/h 49% 0 mm
22:09 1.9 °C -7.7 °C 1029 hPa East 9.7 km/h 16.1 km/h 49% 0 mm
22:14 1.8 °C -7.8 °C 1029 hPa ENE 6.4 km/h 12.9 km/h 49% 0 mm
22:19 1.8 °C -7.5 °C 1028.7 hPa ENE 6.4 km/h 16.1 km/h 50% 0 mm
22:24 1.8 °C -7.5 °C 1028.7 hPa ENE 6.4 km/h 16.1 km/h 50% 0 mm
22:29 1.8 °C -7.5 °C 1028.7 hPa ENE 6.4 km/h 16.1 km/h 50% 0 mm
22:34 1.8 °C -7.6 °C 1028.3 hPa ENE 6.4 km/h 16.1 km/h 50% 0 mm
22:39 1.7 °C -7.4 °C 1028.3 hPa ENE 4.8 km/h 11.3 km/h 51% 0 mm
22:44 1.6 °C -7.4 °C 1028 hPa SE 16.1 km/h 16.1 km/h 51% 0 mm
22:49 1.6 °C -7.5 °C 1028 hPa ESE 4.8 km/h 16.1 km/h 51% 0 mm
22:54 1.6 °C -7.4 °C 1028 hPa East 6.4 km/h 16.1 km/h 51% 0 mm
22:59 1.7 °C -7.4 °C 1027.7 hPa East 8 km/h 16.1 km/h 51% 0 mm
23:04 1.7 °C -7.4 °C 1027.7 hPa ESE 6.4 km/h 11.3 km/h 51% 0 mm
23:09 1.7 °C -7.4 °C 1027.3 hPa ENE 3.2 km/h 9.7 km/h 51% 0 mm
23:14 1.7 °C -7.4 °C 1027.3 hPa East 9.7 km/h 12.9 km/h 51% 0 mm
23:19 1.6 °C -7.4 °C 1027 hPa SSE 4.8 km/h 14.5 km/h 51% 0 mm
23:24 1.6 °C -7.5 °C 1027 hPa East 4.8 km/h 14.5 km/h 51% 0 mm
23:29 1.6 °C -7.2 °C 1027 hPa ESE 4.8 km/h 11.3 km/h 52% 0 mm
23:34 1.7 °C -7.2 °C 1027 hPa ESE 3.2 km/h 11.3 km/h 52% 0 mm
23:39 1.7 °C -7.1 °C 1027 hPa East 3.2 km/h 9.7 km/h 52% 0 mm
23:44 1.8 °C -7.1 °C 1027 hPa East 3.2 km/h 9.7 km/h 52% 0 mm
23:49 1.8 °C -7.2 °C 1027 hPa SSE 4.8 km/h 9.7 km/h 51% 0 mm
23:54 1.9 °C -7.2 °C 1027 hPa East 3.2 km/h 9.7 km/h 51% 0 mm
23:59 2 °C -7.3 °C 1027.3 hPa SSE 1.6 km/h 6.4 km/h 50% 0 mm
Buffalo, New York, USA
Compliments of Weather Underground - 2.5 mb